a3-freunde - Die Audi A3 Community

Allgemeine Fragen (8L)


Titel Antworten Hits Letzter Beitrag
[8L] Wassereintritt Beifahrer und Geruch 12 868 12.9.2018 18:55
[8L] Schiebedach Problem !!! 5 620 12.9.2018 10:29
[8L] Beide Lüfter laufen nicht immer 5 440 12.9.2018 10:12
[8L] Generator gewechselt, seither läuft Keilriemen nicht mehr "gerade" über den Freilauf/die Umlenkrolle 11 659 11.9.2018 10:59
[8L] Motor-Leistung Probleme Ruckeln usw. 28 1.517 11.9.2018 9:06
[8L] Schubumluftventil richtig? 2 475 10.9.2018 14:24
[8L] Spiegeln welchseln Problem 0 324 8.9.2018 17:48
[8L] Wie lange lohnt es sich noch den A3 8L zu fahren? 15 2.163 7.9.2018 19:07
[8L] Welches Motoröl Benziner 14 41.484 7.9.2018 13:08
[8L] Antriebswelle rausgerissen? 2 599 6.9.2018 14:07
Kann man eine Kupplung "nachstellen" ? 7 3.842 2.9.2018 11:52
[8L] 1.8T Startet erst nach 2. Versuch 7 647 1.9.2018 19:14
[8L] Suche Teile-Nummer für Geschwindigkeits / wegstrecken geber 0 335 1.9.2018 13:06
[8L] Elektrischer Fensterhebermotor defekt 6 733 29.8.2018 18:13
[8L] Leistungsverlust 0 321 28.8.2018 18:52
[8L] Stellmotor Temperaturregelklappe 5 1.466 27.8.2018 23:34
[8L] A4 B7 Anhängerkupplung am A3 8L montieren 1 333 27.8.2018 8:58
[8L] Drosselklappe kaputt laut Werkstatt !? 22 10.609 26.8.2018 15:26
[8L] Drosselklappe vergisst ihre Werte ständig! 2 501 25.8.2018 10:48
[8L] Nach Ölwechsel bei Minimum 6 669 24.8.2018 14:42
[8L] Welche Heckstoßstange passt? 5 585 24.8.2018 8:58
[8L] G28 Auto springt nicht an 31 1.338 21.8.2018 19:56
[8L] Welche Gummipropfen passen in meine neuen Türen? 4 468 19.8.2018 16:39
[8L] Scheibenwischwasserdüsen 1 418 19.8.2018 11:39
[8L] Klimaanlage kühlt nicht und Lüfter machen komische Dinge (1.6l) 0 373 18.8.2018 21:05
[8L] Drosselklappe öffnet nicht 0 337 18.8.2018 16:47
[8L] WD40 auf Zündkontakte? 0 413 18.8.2018 12:05
[8L] ledernaht bei audi s3 8l aufgerissen! was tun? 3 502 17.8.2018 13:13
[8L] Großes Problem mit Anschluß von Unterdruckschläuchen S3 APY 4 458 17.8.2018 12:53
[8L] Wie heisst das Teil ? 4 454 17.8.2018 12:48


© a3-freunde.de 2003-2018